sensor_id;sensor_type;location;lat;lon;timestamp;temperature;humidity
76893;DHT22;65854;51.466;7.260;2022-12-18T00:01:04;-4.40;71.30
76893;DHT22;65854;51.466;7.260;2022-12-18T00:03:33;-4.30;71.60
76893;DHT22;65854;51.466;7.260;2022-12-18T00:05:59;-4.20;70.80
76893;DHT22;65854;51.466;7.260;2022-12-18T00:08:25;-4.30;70.20
76893;DHT22;65854;51.466;7.260;2022-12-18T00:10:51;-4.30;70.00
76893;DHT22;65854;51.466;7.260;2022-12-18T00:13:16;-4.40;69.90
76893;DHT22;65854;51.466;7.260;2022-12-18T00:15:42;-4.50;70.30
76893;DHT22;65854;51.466;7.260;2022-12-18T00:18:07;-4.40;70.50
76893;DHT22;65854;51.466;7.260;2022-12-18T00:23:02;-4.40;70.80
76893;DHT22;65854;51.466;7.260;2022-12-18T00:25:28;-4.50;70.90
76893;DHT22;65854;51.466;7.260;2022-12-18T00:27:54;-4.40;70.80
76893;DHT22;65854;51.466;7.260;2022-12-18T00:30:19;-4.40;70.70
76893;DHT22;65854;51.466;7.260;2022-12-18T00:32:45;-4.40;70.70
76893;DHT22;65854;51.466;7.260;2022-12-18T00:35:10;-4.40;70.30
76893;DHT22;65854;51.466;7.260;2022-12-18T00:37:36;-4.30;70.70
76893;DHT22;65854;51.466;7.260;2022-12-18T00:40:03;-4.40;71.00
76893;DHT22;65854;51.466;7.260;2022-12-18T00:42:28;-4.30;71.00
76893;DHT22;65854;51.466;7.260;2022-12-18T00:45:12;-4.40;70.20
76893;DHT22;65854;51.466;7.260;2022-12-18T00:47:38;-4.40;70.20
76893;DHT22;65854;51.466;7.260;2022-12-18T00:50:04;-4.40;70.30
76893;DHT22;65854;51.466;7.260;2022-12-18T00:52:30;-4.50;70.60
76893;DHT22;65854;51.466;7.260;2022-12-18T00:54:55;-4.50;69.90
76893;DHT22;65854;51.466;7.260;2022-12-18T00:57:21;-4.50;70.00
76893;DHT22;65854;51.466;7.260;2022-12-18T00:59:46;-4.50;70.80
76893;DHT22;65854;51.466;7.260;2022-12-18T01:02:12;-4.40;70.60
76893;DHT22;65854;51.466;7.260;2022-12-18T01:04:37;-4.50;69.10
76893;DHT22;65854;51.466;7.260;2022-12-18T01:07:03;-4.50;69.40
76893;DHT22;65854;51.466;7.260;2022-12-18T01:09:28;-4.60;69.10
76893;DHT22;65854;51.466;7.260;2022-12-18T01:11:54;-4.60;68.70
76893;DHT22;65854;51.466;7.260;2022-12-18T01:14:20;-4.80;69.00
76893;DHT22;65854;51.466;7.260;2022-12-18T01:16:45;-4.70;71.10
76893;DHT22;65854;51.466;7.260;2022-12-18T01:19:11;-4.50;71.50
76893;DHT22;65854;51.466;7.260;2022-12-18T01:21:37;-4.30;71.30
76893;DHT22;65854;51.466;7.260;2022-12-18T01:24:02;-4.20;70.90
76893;DHT22;65854;51.466;7.260;2022-12-18T01:26:28;-4.00;70.50
76893;DHT22;65854;51.466;7.260;2022-12-18T01:28:55;-3.90;69.70
76893;DHT22;65854;51.466;7.260;2022-12-18T01:31:27;-3.90;69.00
76893;DHT22;65854;51.466;7.260;2022-12-18T01:33:54;-3.80;68.60
76893;DHT22;65854;51.466;7.260;2022-12-18T01:36:25;-3.80;68.50
76893;DHT22;65854;51.466;7.260;2022-12-18T01:38:52;-4.00;67.80
76893;DHT22;65854;51.466;7.260;2022-12-18T01:41:22;-4.30;66.90
76893;DHT22;65854;51.466;7.260;2022-12-18T01:43:56;-4.50;67.70
76893;DHT22;65854;51.466;7.260;2022-12-18T01:46:26;-4.60;68.50
76893;DHT22;65854;51.466;7.260;2022-12-18T01:48:57;-4.60;69.00
76893;DHT22;65854;51.466;7.260;2022-12-18T01:51:23;-4.70;69.30
76893;DHT22;65854;51.466;7.260;2022-12-18T01:53:49;-4.70;69.50
76893;DHT22;65854;51.466;7.260;2022-12-18T01:56:17;-4.70;69.70
76893;DHT22;65854;51.466;7.260;2022-12-18T02:01:22;-4.80;70.20
76893;DHT22;65854;51.466;7.260;2022-12-18T02:03:49;-4.80;69.80
76893;DHT22;65854;51.466;7.260;2022-12-18T02:06:27;-4.70;69.70
76893;DHT22;65854;51.466;7.260;2022-12-18T02:09:00;-4.80;69.20
76893;DHT22;65854;51.466;7.260;2022-12-18T02:11:46;-4.80;70.00
76893;DHT22;65854;51.466;7.260;2022-12-18T02:14:38;-4.60;71.30
76893;DHT22;65854;51.466;7.260;2022-12-18T02:17:18;-4.40;71.10
76893;DHT22;65854;51.466;7.260;2022-12-18T02:27:45;-4.70;68.90
76893;DHT22;65854;51.466;7.260;2022-12-18T02:30:12;-4.80;69.40
76893;DHT22;65854;51.466;7.260;2022-12-18T02:32:40;-4.70;69.90
76893;DHT22;65854;51.466;7.260;2022-12-18T02:35:10;-4.70;70.30
76893;DHT22;65854;51.466;7.260;2022-12-18T02:37:39;-4.60;70.50
76893;DHT22;65854;51.466;7.260;2022-12-18T02:40:06;-4.60;71.00
76893;DHT22;65854;51.466;7.260;2022-12-18T02:42:33;-4.50;71.30
76893;DHT22;65854;51.466;7.260;2022-12-18T02:44:59;-4.40;71.50
76893;DHT22;65854;51.466;7.260;2022-12-18T02:47:29;-4.20;71.80
76893;DHT22;65854;51.466;7.260;2022-12-18T02:52:45;-3.90;72.10
76893;DHT22;65854;51.466;7.260;2022-12-18T03:01:07;-3.30;71.40
76893;DHT22;65854;51.466;7.260;2022-12-18T03:04:01;-3.20;71.20
76893;DHT22;65854;51.466;7.260;2022-12-18T03:06:37;-3.10;71.10
76893;DHT22;65854;51.466;7.260;2022-12-18T03:09:09;-3.00;70.80
76893;DHT22;65854;51.466;7.260;2022-12-18T03:11:39;-2.90;70.60
76893;DHT22;65854;51.466;7.260;2022-12-18T03:14:26;-2.90;70.40
76893;DHT22;65854;51.466;7.260;2022-12-18T03:16:54;-2.80;70.40
76893;DHT22;65854;51.466;7.260;2022-12-18T03:19:24;-2.70;70.00
76893;DHT22;65854;51.466;7.260;2022-12-18T03:21:54;-2.70;69.80
76893;DHT22;65854;51.466;7.260;2022-12-18T03:24:21;-2.60;69.60
76893;DHT22;65854;51.466;7.260;2022-12-18T03:26:52;-2.50;69.30
76893;DHT22;65854;51.466;7.260;2022-12-18T03:29:28;-2.50;69.10
76893;DHT22;65854;51.466;7.260;2022-12-18T03:32:03;-2.50;69.00
76893;DHT22;65854;51.466;7.260;2022-12-18T03:34:33;-2.40;68.80
76893;DHT22;65854;51.466;7.260;2022-12-18T03:37:01;-2.40;68.70
76893;DHT22;65854;51.466;7.260;2022-12-18T03:39:27;-2.40;68.60
76893;DHT22;65854;51.466;7.260;2022-12-18T03:45:13;-2.30;68.70
76893;DHT22;65854;51.466;7.260;2022-12-18T03:50:30;-2.40;68.60
76893;DHT22;65854;51.466;7.260;2022-12-18T03:53:37;-2.30;68.40
76893;DHT22;65854;51.466;7.260;2022-12-18T03:56:05;-2.30;68.10
76893;DHT22;65854;51.466;7.260;2022-12-18T03:58:32;-2.30;68.20
76893;DHT22;65854;51.466;7.260;2022-12-18T04:01:02;-2.30;68.10
76893;DHT22;65854;51.466;7.260;2022-12-18T04:03:29;-2.20;68.10
76893;DHT22;65854;51.466;7.260;2022-12-18T04:05:58;-2.20;68.30
76893;DHT22;65854;51.466;7.260;2022-12-18T04:08:25;-2.20;68.00
76893;DHT22;65854;51.466;7.260;2022-12-18T04:10:51;-2.20;68.00
76893;DHT22;65854;51.466;7.260;2022-12-18T04:13:25;-2.20;67.90
76893;DHT22;65854;51.466;7.260;2022-12-18T04:15:52;-2.20;67.90
76893;DHT22;65854;51.466;7.260;2022-12-18T04:18:18;-2.20;67.90
76893;DHT22;65854;51.466;7.260;2022-12-18T04:20:44;-2.20;68.10
76893;DHT22;65854;51.466;7.260;2022-12-18T04:23:10;-2.20;67.70
76893;DHT22;65854;51.466;7.260;2022-12-18T04:25:35;-2.20;67.50
76893;DHT22;65854;51.466;7.260;2022-12-18T04:28:01;-2.20;67.70
76893;DHT22;65854;51.466;7.260;2022-12-18T04:30:26;-2.20;67.40
76893;DHT22;65854;51.466;7.260;2022-12-18T04:32:52;-2.20;67.50
76893;DHT22;65854;51.466;7.260;2022-12-18T04:35:17;-2.20;67.50
76893;DHT22;65854;51.466;7.260;2022-12-18T04:37:43;-2.30;67.60
76893;DHT22;65854;51.466;7.260;2022-12-18T04:40:09;-2.30;67.90
76893;DHT22;65854;51.466;7.260;2022-12-18T04:42:35;-2.40;67.80
76893;DHT22;65854;51.466;7.260;2022-12-18T04:45:00;-2.40;67.60
76893;DHT22;65854;51.466;7.260;2022-12-18T04:47:26;-2.40;67.10
76893;DHT22;65854;51.466;7.260;2022-12-18T04:49:51;-2.40;67.20
76893;DHT22;65854;51.466;7.260;2022-12-18T04:52:17;-2.50;67.30
76893;DHT22;65854;51.466;7.260;2022-12-18T04:54:42;-2.50;67.30
76893;DHT22;65854;51.466;7.260;2022-12-18T04:57:08;-2.60;67.30
76893;DHT22;65854;51.466;7.260;2022-12-18T04:59:33;-2.60;66.60
76893;DHT22;65854;51.466;7.260;2022-12-18T05:01:59;-2.90;64.80
76893;DHT22;65854;51.466;7.260;2022-12-18T05:04:24;-3.20;65.60
76893;DHT22;65854;51.466;7.260;2022-12-18T05:06:50;-3.50;65.40
76893;DHT22;65854;51.466;7.260;2022-12-18T05:09:15;-3.70;65.80
76893;DHT22;65854;51.466;7.260;2022-12-18T05:11:41;-4.00;65.90
76893;DHT22;65854;51.466;7.260;2022-12-18T05:14:06;-4.20;66.50
76893;DHT22;65854;51.466;7.260;2022-12-18T05:16:32;-4.30;67.00
76893;DHT22;65854;51.466;7.260;2022-12-18T05:18:58;-4.50;66.70
76893;DHT22;65854;51.466;7.260;2022-12-18T05:21:23;-4.60;67.10
76893;DHT22;65854;51.466;7.260;2022-12-18T05:23:49;-4.60;67.50
76893;DHT22;65854;51.466;7.260;2022-12-18T05:26:17;-4.60;68.10
76893;DHT22;65854;51.466;7.260;2022-12-18T05:28:43;-4.70;67.60
76893;DHT22;65854;51.466;7.260;2022-12-18T05:31:09;-4.60;67.70
76893;DHT22;65854;51.466;7.260;2022-12-18T05:33:35;-4.70;68.20
76893;DHT22;65854;51.466;7.260;2022-12-18T05:36:04;-4.50;69.80
76893;DHT22;65854;51.466;7.260;2022-12-18T05:38:32;-4.40;69.90
76893;DHT22;65854;51.466;7.260;2022-12-18T05:40:58;-4.30;69.00
76893;DHT22;65854;51.466;7.260;2022-12-18T05:43:24;-4.20;69.20
76893;DHT22;65854;51.466;7.260;2022-12-18T05:45:51;-4.10;69.40
76893;DHT22;65854;51.466;7.260;2022-12-18T05:48:17;-3.90;69.60
76893;DHT22;65854;51.466;7.260;2022-12-18T05:50:45;-3.80;68.60
76893;DHT22;65854;51.466;7.260;2022-12-18T05:53:11;-3.80;66.50
76893;DHT22;65854;51.466;7.260;2022-12-18T05:55:39;-3.80;66.70
76893;DHT22;65854;51.466;7.260;2022-12-18T05:58:07;-3.90;66.90
76893;DHT22;65854;51.466;7.260;2022-12-18T06:00:34;-3.90;67.30
76893;DHT22;65854;51.466;7.260;2022-12-18T06:03:00;-3.90;66.80
76893;DHT22;65854;51.466;7.260;2022-12-18T06:05:26;-4.00;66.30
76893;DHT22;65854;51.466;7.260;2022-12-18T06:07:52;-4.00;66.20
76893;DHT22;65854;51.466;7.260;2022-12-18T06:10:17;-4.20;64.50
76893;DHT22;65854;51.466;7.260;2022-12-18T06:12:43;-4.40;64.30
76893;DHT22;65854;51.466;7.260;2022-12-18T06:15:09;-4.60;65.50
76893;DHT22;65854;51.466;7.260;2022-12-18T06:17:34;-4.70;66.10
76893;DHT22;65854;51.466;7.260;2022-12-18T06:20:00;-4.70;65.70
76893;DHT22;65854;51.466;7.260;2022-12-18T06:22:26;-4.90;65.80
76893;DHT22;65854;51.466;7.260;2022-12-18T06:24:52;-5.00;65.90
76893;DHT22;65854;51.466;7.260;2022-12-18T06:27:18;-5.10;66.30
76893;DHT22;65854;51.466;7.260;2022-12-18T06:29:44;-5.10;67.10
76893;DHT22;65854;51.466;7.260;2022-12-18T06:32:10;-5.20;67.50
76893;DHT22;65854;51.466;7.260;2022-12-18T06:34:39;-5.20;67.80
76893;DHT22;65854;51.466;7.260;2022-12-18T06:37:05;-5.20;67.90
76893;DHT22;65854;51.466;7.260;2022-12-18T06:39:30;-5.20;68.50
76893;DHT22;65854;51.466;7.260;2022-12-18T06:41:56;-5.10;68.90
76893;DHT22;65854;51.466;7.260;2022-12-18T06:44:22;-5.10;68.00
76893;DHT22;65854;51.466;7.260;2022-12-18T06:46:47;-5.20;68.50
76893;DHT22;65854;51.466;7.260;2022-12-18T06:49:13;-5.20;68.60
76893;DHT22;65854;51.466;7.260;2022-12-18T06:51:39;-5.20;68.40
76893;DHT22;65854;51.466;7.260;2022-12-18T06:54:04;-5.30;68.90
76893;DHT22;65854;51.466;7.260;2022-12-18T06:56:30;-5.30;69.30
76893;DHT22;65854;51.466;7.260;2022-12-18T06:58:56;-5.20;69.50
76893;DHT22;65854;51.466;7.260;2022-12-18T07:01:22;-5.20;69.20
76893;DHT22;65854;51.466;7.260;2022-12-18T07:03:52;-5.20;69.10
76893;DHT22;65854;51.466;7.260;2022-12-18T07:06:20;-5.20;69.10
76893;DHT22;65854;51.466;7.260;2022-12-18T07:08:48;-5.30;68.60
76893;DHT22;65854;51.466;7.260;2022-12-18T07:11:14;-5.40;68.30
76893;DHT22;65854;51.466;7.260;2022-12-18T07:13:40;-5.40;67.70
76893;DHT22;65854;51.466;7.260;2022-12-18T07:16:08;-5.50;67.70
76893;DHT22;65854;51.466;7.260;2022-12-18T07:18:34;-5.60;67.20
76893;DHT22;65854;51.466;7.260;2022-12-18T07:21:08;-5.60;68.00
76893;DHT22;65854;51.466;7.260;2022-12-18T07:23:35;-5.70;67.70
76893;DHT22;65854;51.466;7.260;2022-12-18T07:26:09;-5.60;68.60
76893;DHT22;65854;51.466;7.260;2022-12-18T07:28:36;-5.40;69.80
76893;DHT22;65854;51.466;7.260;2022-12-18T07:31:07;-5.30;68.60
76893;DHT22;65854;51.466;7.260;2022-12-18T07:33:34;-5.20;68.50
76893;DHT22;65854;51.466;7.260;2022-12-18T07:36:04;-5.20;68.20
76893;DHT22;65854;51.466;7.260;2022-12-18T07:38:30;-5.20;67.00
76893;DHT22;65854;51.466;7.260;2022-12-18T07:41:07;-5.40;67.00
76893;DHT22;65854;51.466;7.260;2022-12-18T07:43:34;-5.60;67.10
76893;DHT22;65854;51.466;7.260;2022-12-18T07:46:00;-5.60;67.10
76893;DHT22;65854;51.466;7.260;2022-12-18T07:48:26;-5.60;67.50
76893;DHT22;65854;51.466;7.260;2022-12-18T07:50:51;-5.60;68.10
76893;DHT22;65854;51.466;7.260;2022-12-18T07:53:17;-5.50;69.30
76893;DHT22;65854;51.466;7.260;2022-12-18T07:55:43;-5.40;69.40
76893;DHT22;65854;51.466;7.260;2022-12-18T07:58:09;-5.30;68.20
76893;DHT22;65854;51.466;7.260;2022-12-18T08:00:35;-5.30;67.20
76893;DHT22;65854;51.466;7.260;2022-12-18T08:03:00;-5.30;66.50
76893;DHT22;65854;51.466;7.260;2022-12-18T08:05:26;-5.40;66.80
76893;DHT22;65854;51.466;7.260;2022-12-18T08:07:52;-5.40;66.80
76893;DHT22;65854;51.466;7.260;2022-12-18T08:10:19;-5.30;67.60
76893;DHT22;65854;51.466;7.260;2022-12-18T08:12:44;-5.30;68.00
76893;DHT22;65854;51.466;7.260;2022-12-18T08:15:10;-5.20;68.20
76893;DHT22;65854;51.466;7.260;2022-12-18T08:17:38;-5.20;68.50
76893;DHT22;65854;51.466;7.260;2022-12-18T08:20:04;-5.10;68.50
76893;DHT22;65854;51.466;7.260;2022-12-18T08:22:30;-5.10;68.70
76893;DHT22;65854;51.466;7.260;2022-12-18T08:24:55;-5.10;68.30
76893;DHT22;65854;51.466;7.260;2022-12-18T08:27:21;-5.00;68.40
76893;DHT22;65854;51.466;7.260;2022-12-18T08:29:46;-5.00;68.10
76893;DHT22;65854;51.466;7.260;2022-12-18T08:32:12;-5.00;68.50
76893;DHT22;65854;51.466;7.260;2022-12-18T08:34:37;-4.90;68.20
76893;DHT22;65854;51.466;7.260;2022-12-18T08:37:03;-4.80;68.00
76893;DHT22;65854;51.466;7.260;2022-12-18T08:39:29;-4.70;68.20
76893;DHT22;65854;51.466;7.260;2022-12-18T08:41:54;-4.70;67.80
76893;DHT22;65854;51.466;7.260;2022-12-18T08:44:38;-4.60;67.80
76893;DHT22;65854;51.466;7.260;2022-12-18T08:47:05;-4.50;67.60
76893;DHT22;65854;51.466;7.260;2022-12-18T08:49:31;-4.40;67.60
76893;DHT22;65854;51.466;7.260;2022-12-18T08:51:56;-4.30;67.60
76893;DHT22;65854;51.466;7.260;2022-12-18T08:54:23;-4.10;67.60
76893;DHT22;65854;51.466;7.260;2022-12-18T08:56:48;-3.90;67.10
76893;DHT22;65854;51.466;7.260;2022-12-18T08:59:15;-3.70;67.00
76893;DHT22;65854;51.466;7.260;2022-12-18T09:01:41;-3.60;66.70
76893;DHT22;65854;51.466;7.260;2022-12-18T09:04:08;-3.40;66.10
76893;DHT22;65854;51.466;7.260;2022-12-18T09:06:34;-3.20;65.70
76893;DHT22;65854;51.466;7.260;2022-12-18T09:09:00;-3.20;66.10
76893;DHT22;65854;51.466;7.260;2022-12-18T09:11:27;-3.20;66.10
76893;DHT22;65854;51.466;7.260;2022-12-18T09:13:54;-3.10;66.40
76893;DHT22;65854;51.466;7.260;2022-12-18T09:16:20;-3.00;65.80
76893;DHT22;65854;51.466;7.260;2022-12-18T09:18:46;-2.90;65.40
76893;DHT22;65854;51.466;7.260;2022-12-18T09:21:16;-2.70;63.50
76893;DHT22;65854;51.466;7.260;2022-12-18T09:23:42;-2.60;62.50
76893;DHT22;65854;51.466;7.260;2022-12-18T09:26:08;-2.40;61.80
76893;DHT22;65854;51.466;7.260;2022-12-18T09:28:34;-2.20;60.60
76893;DHT22;65854;51.466;7.260;2022-12-18T09:31:05;-2.10;59.50
76893;DHT22;65854;51.466;7.260;2022-12-18T09:33:31;-1.90;58.70
76893;DHT22;65854;51.466;7.260;2022-12-18T09:35:57;-1.70;57.80
76893;DHT22;65854;51.466;7.260;2022-12-18T09:38:22;-1.60;57.20
76893;DHT22;65854;51.466;7.260;2022-12-18T09:40:55;-1.50;56.80
76893;DHT22;65854;51.466;7.260;2022-12-18T09:43:45;-1.30;56.90
76893;DHT22;65854;51.466;7.260;2022-12-18T09:46:18;-1.20;56.20
76893;DHT22;65854;51.466;7.260;2022-12-18T09:48:49;-1.10;56.60
76893;DHT22;65854;51.466;7.260;2022-12-18T09:54:33;-0.90;55.40
76893;DHT22;65854;51.466;7.260;2022-12-18T09:57:01;-0.70;54.40
76893;DHT22;65854;51.466;7.260;2022-12-18T09:59:37;-0.60;54.10
76893;DHT22;65854;51.466;7.260;2022-12-18T10:02:22;-0.50;54.20
76893;DHT22;65854;51.466;7.260;2022-12-18T10:07:55;-0.30;53.40
76893;DHT22;65854;51.466;7.260;2022-12-18T10:10:38;-0.20;53.10
76893;DHT22;65854;51.466;7.260;2022-12-18T10:15:58;-0.10;53.30
76893;DHT22;65854;51.466;7.260;2022-12-18T10:19:00;0.00;52.30
76893;DHT22;65854;51.466;7.260;2022-12-18T10:21:34;0.10;51.80
76893;DHT22;65854;51.466;7.260;2022-12-18T10:26:49;0.30;51.70
76893;DHT22;65854;51.466;7.260;2022-12-18T10:29:15;0.40;51.90
76893;DHT22;65854;51.466;7.260;2022-12-18T10:31:41;0.40;51.80
76893;DHT22;65854;51.466;7.260;2022-12-18T10:34:11;0.40;51.70
76893;DHT22;65854;51.466;7.260;2022-12-18T10:36:40;0.50;51.40
76893;DHT22;65854;51.466;7.260;2022-12-18T10:39:23;0.60;50.90
76893;DHT22;65854;51.466;7.260;2022-12-18T10:41:48;0.60;51.40
76893;DHT22;65854;51.466;7.260;2022-12-18T10:44:19;0.70;51.50
76893;DHT22;65854;51.466;7.260;2022-12-18T10:46:48;0.80;50.30
76893;DHT22;65854;51.466;7.260;2022-12-18T10:49:26;0.90;50.10
76893;DHT22;65854;51.466;7.260;2022-12-18T10:52:05;1.00;50.10
76893;DHT22;65854;51.466;7.260;2022-12-18T10:54:33;1.00;48.30
76893;DHT22;65854;51.466;7.260;2022-12-18T10:57:29;1.00;49.30
76893;DHT22;65854;51.466;7.260;2022-12-18T10:59:58;1.10;48.60
76893;DHT22;65854;51.466;7.260;2022-12-18T11:02:37;1.20;47.60
76893;DHT22;65854;51.466;7.260;2022-12-18T11:05:32;1.20;48.10
76893;DHT22;65854;51.466;7.260;2022-12-18T11:07:59;1.30;48.00
76893;DHT22;65854;51.466;7.260;2022-12-18T11:10:34;1.30;48.60
76893;DHT22;65854;51.466;7.260;2022-12-18T11:13:20;1.30;48.70
76893;DHT22;65854;51.466;7.260;2022-12-18T11:15:46;1.30;48.30
76893;DHT22;65854;51.466;7.260;2022-12-18T11:18:33;1.40;48.90
76893;DHT22;65854;51.466;7.260;2022-12-18T11:21:10;1.40;49.30
76893;DHT22;65854;51.466;7.260;2022-12-18T11:23:37;1.40;48.50
76893;DHT22;65854;51.466;7.260;2022-12-18T11:26:11;1.50;47.90
76893;DHT22;65854;51.466;7.260;2022-12-18T11:28:51;1.50;48.40
76893;DHT22;65854;51.466;7.260;2022-12-18T11:36:36;1.60;47.20
76893;DHT22;65854;51.466;7.260;2022-12-18T11:39:15;1.70;46.70
76893;DHT22;65854;51.466;7.260;2022-12-18T11:41:50;1.70;46.90
76893;DHT22;65854;51.466;7.260;2022-12-18T11:44:58;1.80;46.90
76893;DHT22;65854;51.466;7.260;2022-12-18T11:47:49;1.80;46.80
76893;DHT22;65854;51.466;7.260;2022-12-18T11:50:21;1.80;46.70
76893;DHT22;65854;51.466;7.260;2022-12-18T11:52:48;1.80;46.40
76893;DHT22;65854;51.466;7.260;2022-12-18T11:55:19;1.90;46.30
76893;DHT22;65854;51.466;7.260;2022-12-18T12:12:10;2.00;45.40
76893;DHT22;65854;51.466;7.260;2022-12-18T12:14:54;2.10;44.90
76893;DHT22;65854;51.466;7.260;2022-12-18T12:23:30;2.10;45.90
76893;DHT22;65854;51.466;7.260;2022-12-18T12:29:07;2.20;45.90
76893;DHT22;65854;51.466;7.260;2022-12-18T12:34:44;2.20;46.00
76893;DHT22;65854;51.466;7.260;2022-12-18T12:39:46;2.20;45.30
76893;DHT22;65854;51.466;7.260;2022-12-18T12:42:32;2.20;45.10
76893;DHT22;65854;51.466;7.260;2022-12-18T12:45:34;2.30;45.40
76893;DHT22;65854;51.466;7.260;2022-12-18T12:48:02;2.30;44.80
76893;DHT22;65854;51.466;7.260;2022-12-18T12:50:33;2.30;45.00
76893;DHT22;65854;51.466;7.260;2022-12-18T12:53:01;2.30;44.40
76893;DHT22;65854;51.466;7.260;2022-12-18T12:55:32;2.30;44.10
76893;DHT22;65854;51.466;7.260;2022-12-18T12:58:10;2.30;44.40
76893;DHT22;65854;51.466;7.260;2022-12-18T13:01:32;2.40;43.90
76893;DHT22;65854;51.466;7.260;2022-12-18T13:03:52;2.40;44.20
76893;DHT22;65854;51.466;7.260;2022-12-18T13:06:40;2.40;44.00
76893;DHT22;65854;51.466;7.260;2022-12-18T13:09:08;2.40;44.70
76893;DHT22;65854;51.466;7.260;2022-12-18T13:11:45;2.50;44.40
76893;DHT22;65854;51.466;7.260;2022-12-18T13:14:35;2.50;44.20
76893;DHT22;65854;51.466;7.260;2022-12-18T13:19:50;2.40;44.70
76893;DHT22;65854;51.466;7.260;2022-12-18T13:22:28;2.40;43.60
76893;DHT22;65854;51.466;7.260;2022-12-18T13:24:54;2.40;43.60
76893;DHT22;65854;51.466;7.260;2022-12-18T13:38:22;2.20;44.70
76893;DHT22;65854;51.466;7.260;2022-12-18T13:45:49;2.20;45.50
76893;DHT22;65854;51.466;7.260;2022-12-18T13:48:23;2.10;45.80
76893;DHT22;65854;51.466;7.260;2022-12-18T13:50:53;2.10;46.40
76893;DHT22;65854;51.466;7.260;2022-12-18T13:53:36;2.10;46.60
76893;DHT22;65854;51.466;7.260;2022-12-18T13:56:04;2.10;46.70
76893;DHT22;65854;51.466;7.260;2022-12-18T13:58:30;2.10;47.10
76893;DHT22;65854;51.466;7.260;2022-12-18T14:00:56;2.00;47.40
76893;DHT22;65854;51.466;7.260;2022-12-18T14:03:26;1.90;47.70
76893;DHT22;65854;51.466;7.260;2022-12-18T14:05:56;1.90;47.90
76893;DHT22;65854;51.466;7.260;2022-12-18T14:08:23;1.90;48.50
76893;DHT22;65854;51.466;7.260;2022-12-18T14:10:50;1.90;48.30
76893;DHT22;65854;51.466;7.260;2022-12-18T14:13:37;1.90;48.40
76893;DHT22;65854;51.466;7.260;2022-12-18T14:16:06;1.80;48.60
76893;DHT22;65854;51.466;7.260;2022-12-18T14:18:45;1.80;49.20
76893;DHT22;65854;51.466;7.260;2022-12-18T14:21:28;1.80;49.20
76893;DHT22;65854;51.466;7.260;2022-12-18T14:24:17;1.80;49.10
76893;DHT22;65854;51.466;7.260;2022-12-18T14:26:43;1.80;49.30
76893;DHT22;65854;51.466;7.260;2022-12-18T14:29:22;1.70;49.50
76893;DHT22;65854;51.466;7.260;2022-12-18T14:32:09;1.70;49.60
76893;DHT22;65854;51.466;7.260;2022-12-18T14:34:36;1.60;49.60
76893;DHT22;65854;51.466;7.260;2022-12-18T14:37:02;1.60;50.20
76893;DHT22;65854;51.466;7.260;2022-12-18T14:39:28;1.60;49.70
76893;DHT22;65854;51.466;7.260;2022-12-18T14:41:53;1.50;49.70
76893;DHT22;65854;51.466;7.260;2022-12-18T14:44:19;1.60;49.80
76893;DHT22;65854;51.466;7.260;2022-12-18T14:46:48;1.60;49.90
76893;DHT22;65854;51.466;7.260;2022-12-18T14:49:30;1.50;49.70
76893;DHT22;65854;51.466;7.260;2022-12-18T14:52:02;1.50;49.90
76893;DHT22;65854;51.466;7.260;2022-12-18T14:54:30;1.50;49.00
76893;DHT22;65854;51.466;7.260;2022-12-18T14:57:06;1.50;48.80
76893;DHT22;65854;51.466;7.260;2022-12-18T14:59:38;1.50;49.20
76893;DHT22;65854;51.466;7.260;2022-12-18T15:02:23;1.50;49.50
76893;DHT22;65854;51.466;7.260;2022-12-18T15:05:33;1.50;49.60
76893;DHT22;65854;51.466;7.260;2022-12-18T15:07:55;1.60;49.10
76893;DHT22;65854;51.466;7.260;2022-12-18T15:12:48;1.50;48.30
76893;DHT22;65854;51.466;7.260;2022-12-18T15:20:50;1.40;49.10
76893;DHT22;65854;51.466;7.260;2022-12-18T15:23:22;1.30;49.20
76893;DHT22;65854;51.466;7.260;2022-12-18T15:26:02;1.30;49.60
76893;DHT22;65854;51.466;7.260;2022-12-18T15:36:17;1.20;49.50
76893;DHT22;65854;51.466;7.260;2022-12-18T15:38:47;1.30;49.60
76893;DHT22;65854;51.466;7.260;2022-12-18T15:41:14;1.20;50.00
76893;DHT22;65854;51.466;7.260;2022-12-18T15:43:41;1.20;50.20
76893;DHT22;65854;51.466;7.260;2022-12-18T15:46:24;1.20;50.10
76893;DHT22;65854;51.466;7.260;2022-12-18T15:48:54;1.20;49.90
76893;DHT22;65854;51.466;7.260;2022-12-18T15:51:23;1.20;50.20
76893;DHT22;65854;51.466;7.260;2022-12-18T15:53:52;1.20;50.40
76893;DHT22;65854;51.466;7.260;2022-12-18T15:56:19;1.20;50.70
76893;DHT22;65854;51.466;7.260;2022-12-18T15:59:11;1.20;50.70
76893;DHT22;65854;51.466;7.260;2022-12-18T16:01:37;1.10;51.10
76893;DHT22;65854;51.466;7.260;2022-12-18T16:04:03;1.10;51.10
76893;DHT22;65854;51.466;7.260;2022-12-18T16:06:29;1.10;51.60
76893;DHT22;65854;51.466;7.260;2022-12-18T16:08:54;1.10;51.60
76893;DHT22;65854;51.466;7.260;2022-12-18T16:11:26;1.10;52.00
76893;DHT22;65854;51.466;7.260;2022-12-18T16:14:19;1.10;52.20
76893;DHT22;65854;51.466;7.260;2022-12-18T16:16:47;1.10;52.70
76893;DHT22;65854;51.466;7.260;2022-12-18T16:19:13;1.00;52.90
76893;DHT22;65854;51.466;7.260;2022-12-18T16:21:39;1.00;53.20
76893;DHT22;65854;51.466;7.260;2022-12-18T16:24:05;1.00;53.40
76893;DHT22;65854;51.466;7.260;2022-12-18T16:26:31;1.00;53.60
76893;DHT22;65854;51.466;7.260;2022-12-18T16:28:57;1.00;53.90
76893;DHT22;65854;51.466;7.260;2022-12-18T16:31:23;1.00;54.10
76893;DHT22;65854;51.466;7.260;2022-12-18T16:33:48;1.00;54.60
76893;DHT22;65854;51.466;7.260;2022-12-18T16:36:14;1.00;54.90
76893;DHT22;65854;51.466;7.260;2022-12-18T16:38:39;1.00;55.30
76893;DHT22;65854;51.466;7.260;2022-12-18T16:41:19;1.00;55.70
76893;DHT22;65854;51.466;7.260;2022-12-18T16:43:57;0.90;55.80
76893;DHT22;65854;51.466;7.260;2022-12-18T16:46:22;1.00;56.10
76893;DHT22;65854;51.466;7.260;2022-12-18T16:48:48;1.00;56.40
76893;DHT22;65854;51.466;7.260;2022-12-18T16:51:13;1.00;56.70
76893;DHT22;65854;51.466;7.260;2022-12-18T16:53:39;1.00;57.00
76893;DHT22;65854;51.466;7.260;2022-12-18T16:56:05;0.90;57.50
76893;DHT22;65854;51.466;7.260;2022-12-18T16:58:31;1.00;57.60
76893;DHT22;65854;51.466;7.260;2022-12-18T17:00:57;1.00;57.80
76893;DHT22;65854;51.466;7.260;2022-12-18T17:03:22;0.90;58.20
76893;DHT22;65854;51.466;7.260;2022-12-18T17:05:48;0.90;58.50
76893;DHT22;65854;51.466;7.260;2022-12-18T17:08:13;0.90;58.90
76893;DHT22;65854;51.466;7.260;2022-12-18T17:10:39;0.90;58.80
76893;DHT22;65854;51.466;7.260;2022-12-18T17:13:04;0.90;58.90
76893;DHT22;65854;51.466;7.260;2022-12-18T17:15:33;0.80;59.40
76893;DHT22;65854;51.466;7.260;2022-12-18T17:17:59;0.80;59.90
76893;DHT22;65854;51.466;7.260;2022-12-18T17:20:24;0.90;59.90
76893;DHT22;65854;51.466;7.260;2022-12-18T17:22:50;0.90;60.00
76893;DHT22;65854;51.466;7.260;2022-12-18T17:25:15;0.90;60.50
76893;DHT22;65854;51.466;7.260;2022-12-18T17:27:41;0.90;60.80
76893;DHT22;65854;51.466;7.260;2022-12-18T17:30:07;0.80;61.10
76893;DHT22;65854;51.466;7.260;2022-12-18T17:32:33;0.80;61.60
76893;DHT22;65854;51.466;7.260;2022-12-18T17:34:58;0.80;61.60
76893;DHT22;65854;51.466;7.260;2022-12-18T17:37:24;0.80;61.80
76893;DHT22;65854;51.466;7.260;2022-12-18T17:39:50;0.80;62.10
76893;DHT22;65854;51.466;7.260;2022-12-18T17:42:15;0.80;62.30